createdAt,value
2022-10-16T00:03:26.675Z,1.30
2022-10-16T00:08:33.750Z,1.52
2022-10-16T00:13:38.034Z,1.67
2022-10-16T00:18:41.782Z,0.80
2022-10-16T00:23:46.112Z,1.02
2022-10-16T00:28:50.086Z,1.20
2022-10-16T00:33:53.347Z,1.10
2022-10-16T00:44:41.199Z,1.33
2022-10-16T00:49:44.339Z,2.20
2022-10-16T00:54:50.197Z,1.27
2022-10-16T00:59:53.424Z,1.92
2022-10-16T01:04:56.765Z,1.73
2022-10-16T01:10:11.607Z,1.38
2022-10-16T01:15:20.558Z,1.65
2022-10-16T01:20:29.428Z,1.20
2022-10-16T01:25:48.744Z,1.20
2022-10-16T01:30:58.105Z,1.00
2022-10-16T01:36:07.921Z,1.02
2022-10-16T01:41:15.144Z,1.38
2022-10-16T01:46:22.888Z,1.20
2022-10-16T01:51:26.902Z,1.25
2022-10-16T01:56:31.476Z,1.73
2022-10-16T02:01:39.187Z,1.40
2022-10-16T02:06:42.046Z,1.50
2022-10-16T02:11:45.192Z,1.65
2022-10-16T02:16:49.533Z,1.67
2022-10-16T02:21:56.064Z,1.40
2022-10-16T02:27:09.086Z,1.40
2022-10-16T02:32:16.693Z,1.30
2022-10-16T02:37:21.055Z,1.25
2022-10-16T02:42:30.690Z,1.38
2022-10-16T02:47:34.974Z,1.00
2022-10-16T02:52:37.703Z,1.20
2022-10-16T02:57:41.298Z,1.05
2022-10-16T03:02:46.170Z,1.30
2022-10-16T03:07:48.864Z,1.10
2022-10-16T03:12:52.016Z,1.27
2022-10-16T03:17:56.213Z,0.93
2022-10-16T03:22:58.911Z,1.23
2022-10-16T03:28:02.138Z,1.20
2022-10-16T03:33:06.437Z,1.10
2022-10-16T03:38:09.126Z,1.50
2022-10-16T03:43:11.880Z,1.27
2022-10-16T03:48:15.941Z,1.27
2022-10-16T03:53:18.700Z,1.10
2022-10-16T03:58:21.997Z,0.80
2022-10-16T04:03:26.922Z,2.17
2022-10-16T04:08:29.651Z,1.65
2022-10-16T04:13:32.361Z,1.13
2022-10-16T04:18:36.515Z,1.30
2022-10-16T04:23:39.348Z,1.17
2022-10-16T04:28:42.190Z,0.90
2022-10-16T04:33:46.427Z,1.35
2022-10-16T04:38:49.496Z,1.17
2022-10-16T04:43:52.278Z,1.38
2022-10-16T04:48:56.377Z,0.80
2022-10-16T04:53:59.135Z,1.10
2022-10-16T04:59:02.188Z,1.10
2022-10-16T05:04:06.345Z,1.38
2022-10-16T05:09:09.872Z,0.90
2022-10-16T05:14:12.866Z,1.00
2022-10-16T05:19:32.382Z,1.10
2022-10-16T05:24:35.182Z,1.13
2022-10-16T05:29:37.986Z,1.38
2022-10-16T05:34:42.075Z,0.80
2022-10-16T05:39:44.895Z,1.75
2022-10-16T05:44:47.688Z,0.93
2022-10-16T05:49:51.773Z,1.30
2022-10-16T05:54:54.537Z,0.55
2022-10-16T05:59:57.299Z,0.77
2022-10-16T06:05:02.121Z,0.88
2022-10-16T06:10:06.314Z,1.23
2022-10-16T06:15:10.302Z,1.10
2022-10-16T06:20:14.644Z,0.98
2022-10-16T06:25:17.430Z,0.95
2022-10-16T06:30:20.225Z,1.40
2022-10-16T06:35:24.806Z,0.80
2022-10-16T06:40:27.738Z,0.98
2022-10-16T06:45:30.567Z,1.17
2022-10-16T06:50:34.714Z,0.68
2022-10-16T06:55:37.410Z,1.17
2022-10-16T07:00:40.262Z,1.10
2022-10-16T07:05:44.941Z,0.75
2022-10-16T07:10:48.191Z,0.80
2022-10-16T07:15:50.934Z,1.23
2022-10-16T07:20:55.531Z,1.00
2022-10-16T07:25:58.301Z,0.77
2022-10-16T07:31:03.298Z,1.23
2022-10-16T07:36:09.608Z,0.90
2022-10-16T07:41:16.984Z,0.75
2022-10-16T07:46:21.613Z,0.70
2022-10-16T07:51:28.001Z,0.65
2022-10-16T07:56:33.399Z,1.87
2022-10-16T08:01:36.644Z,0.90
2022-10-16T08:06:42.372Z,0.98
2022-10-16T08:11:45.142Z,0.98
2022-10-16T08:16:48.282Z,1.08
2022-10-16T08:21:52.429Z,0.88
2022-10-16T08:26:55.683Z,2.25
2022-10-16T08:31:58.413Z,1.05
2022-10-16T08:37:02.971Z,1.10
2022-10-16T08:42:30.974Z,1.75
2022-10-16T08:47:46.987Z,4.05
2022-10-16T08:52:51.063Z,1.38
2022-10-16T08:57:54.026Z,3.08
2022-10-16T09:03:07.919Z,5.53
2022-10-16T09:08:20.593Z,2.65
2022-10-16T09:13:29.299Z,1.33
2022-10-16T09:18:39.455Z,1.30
2022-10-16T09:23:43.562Z,0.82
2022-10-16T09:28:46.607Z,1.10
2022-10-16T09:33:54.526Z,1.20
2022-10-16T09:39:07.234Z,1.20
2022-10-16T09:44:22.138Z,3.20
2022-10-16T09:49:27.909Z,2.15
2022-10-16T09:54:32.121Z,3.55
2022-10-16T09:59:35.038Z,2.65
2022-10-16T10:04:43.709Z,1.35
2022-10-16T10:09:48.613Z,2.03
2022-10-16T10:14:53.810Z,1.23
2022-10-16T10:19:58.925Z,1.00
2022-10-16T10:25:40.888Z,0.60
2022-10-16T10:30:48.772Z,1.10
2022-10-16T10:36:02.079Z,0.57
2022-10-16T10:41:25.481Z,0.70
2022-10-16T10:46:36.780Z,0.50
2022-10-16T10:51:52.113Z,0.70
2022-10-16T10:57:02.291Z,0.52
2022-10-16T11:02:15.601Z,7.13
2022-10-16T11:07:23.169Z,2.58
2022-10-16T11:12:31.689Z,5.75
2022-10-16T11:17:40.726Z,9.80
2022-10-16T11:22:49.195Z,2.30
2022-10-16T11:27:58.926Z,1.70
2022-10-16T11:33:25.319Z,0.70
2022-10-16T11:38:36.034Z,0.68
2022-10-16T11:43:45.001Z,1.02
2022-10-16T11:48:53.557Z,2.38
2022-10-16T11:54:02.135Z,2.88
2022-10-16T11:59:18.178Z,2.70
2022-10-16T12:04:29.576Z,1.42
2022-10-16T12:09:34.635Z,1.10
2022-10-16T12:20:22.911Z,3.92
2022-10-16T12:25:29.441Z,3.00
2022-10-16T12:30:36.568Z,1.30
2022-10-16T12:35:46.640Z,1.48
2022-10-16T12:40:59.887Z,3.35
2022-10-16T12:46:06.814Z,4.07
2022-10-16T12:51:14.234Z,1.15
2022-10-16T12:56:26.177Z,1.00
2022-10-16T13:01:42.967Z,1.00
2022-10-16T13:06:53.418Z,1.67
2022-10-16T13:12:21.799Z,0.40
2022-10-16T13:17:34.500Z,0.50
2022-10-16T13:22:47.237Z,0.50
2022-10-16T13:27:57.191Z,0.52
2022-10-16T13:33:04.304Z,0.47
2022-10-16T13:38:13.130Z,1.50
2022-10-16T13:43:15.895Z,0.50
2022-10-16T13:48:19.959Z,0.60
2022-10-16T13:53:22.750Z,0.80
2022-10-16T13:58:25.523Z,0.57
2022-10-16T14:03:31.799Z,1.00
2022-10-16T14:08:35.155Z,0.60
2022-10-16T14:13:40.589Z,0.60
2022-10-16T14:18:48.606Z,0.40
2022-10-16T14:23:51.417Z,0.50
2022-10-16T14:29:12.074Z,0.77
2022-10-16T14:34:32.605Z,0.63
2022-10-16T14:39:37.418Z,0.65
2022-10-16T14:44:42.075Z,0.60
2022-10-16T14:49:46.223Z,0.47
2022-10-16T14:54:51.273Z,0.85
2022-10-16T14:59:54.246Z,1.48
2022-10-16T15:04:59.296Z,0.50
2022-10-16T15:10:02.269Z,0.60
2022-10-16T15:15:26.748Z,1.30
2022-10-16T15:20:34.617Z,0.95
2022-10-16T15:25:41.633Z,1.38
2022-10-16T15:30:45.856Z,3.58
2022-10-16T15:35:51.077Z,1.95
2022-10-16T15:40:53.870Z,3.10
2022-10-16T15:46:03.488Z,1.40
2022-10-16T15:51:09.218Z,1.00
2022-10-16T15:56:12.839Z,3.30
2022-10-16T16:01:16.040Z,2.90
2022-10-16T16:06:20.417Z,7.93
2022-10-16T16:11:25.409Z,12.63
2022-10-16T16:16:29.401Z,4.53
2022-10-16T16:21:34.315Z,8.45
2022-10-16T16:26:40.756Z,6.97
2022-10-16T16:31:44.408Z,11.02
2022-10-16T16:36:48.463Z,17.65
2022-10-16T16:41:52.672Z,10.45
2022-10-16T16:46:59.510Z,4.70
2022-10-16T16:52:05.336Z,4.72
2022-10-16T16:57:08.125Z,2.15
2022-10-16T17:02:11.365Z,2.08
2022-10-16T17:07:15.902Z,2.25
2022-10-16T17:12:19.715Z,2.75
2022-10-16T17:17:23.063Z,2.85
2022-10-16T17:22:27.432Z,3.28
2022-10-16T17:27:30.413Z,1.88
2022-10-16T17:32:33.299Z,2.85
2022-10-16T17:37:37.342Z,3.42
2022-10-16T17:42:40.300Z,3.95
2022-10-16T17:47:43.093Z,3.50
2022-10-16T17:52:47.295Z,3.42
2022-10-16T17:57:50.035Z,3.72
2022-10-16T18:02:54.487Z,3.80
2022-10-16T18:07:59.072Z,13.95
2022-10-16T18:13:02.112Z,10.60
2022-10-16T18:18:04.965Z,6.50
2022-10-16T18:23:09.168Z,8.35
2022-10-16T18:28:12.523Z,5.65
2022-10-16T18:33:15.297Z,5.40
2022-10-16T18:38:20.363Z,5.97
2022-10-16T18:43:23.267Z,5.85
2022-10-16T18:48:26.116Z,5.60
2022-10-16T18:53:30.311Z,10.13
2022-10-16T18:58:34.303Z,12.43
2022-10-16T19:03:38.548Z,9.05
2022-10-16T19:08:43.509Z,8.02
2022-10-16T19:13:48.603Z,8.63
2022-10-16T19:18:54.224Z,7.22
2022-10-16T19:23:59.867Z,8.63
2022-10-16T19:29:04.888Z,6.88
2022-10-16T19:34:08.007Z,7.40
2022-10-16T19:39:15.511Z,6.38
2022-10-16T19:44:18.773Z,6.60
2022-10-16T19:49:22.080Z,5.43
2022-10-16T19:54:26.673Z,5.78
2022-10-16T19:59:29.558Z,5.75
2022-10-16T20:04:32.280Z,5.85
2022-10-16T20:09:36.427Z,5.72
2022-10-16T20:14:39.631Z,6.78
2022-10-16T20:19:42.342Z,5.68
2022-10-16T20:24:46.569Z,6.93
2022-10-16T20:29:49.338Z,8.32
2022-10-16T20:34:52.067Z,7.03
2022-10-16T20:39:56.103Z,8.55
2022-10-16T20:44:59.303Z,8.07
2022-10-16T20:50:02.120Z,8.07
2022-10-16T20:55:07.615Z,7.13
2022-10-16T21:00:11.425Z,8.02
2022-10-16T21:05:14.238Z,9.38
2022-10-16T21:10:19.042Z,9.38
2022-10-16T21:15:22.063Z,8.70
2022-10-16T21:20:24.873Z,8.57
2022-10-16T21:25:29.752Z,9.05
2022-10-16T21:30:32.520Z,7.68
2022-10-16T21:35:35.256Z,8.07
2022-10-16T21:40:39.509Z,10.02
2022-10-16T21:45:42.266Z,8.60
2022-10-16T21:50:49.083Z,9.07
2022-10-16T21:55:53.155Z,9.85
2022-10-16T22:00:56.291Z,8.57
2022-10-16T22:06:06.494Z,8.80
2022-10-16T22:11:13.387Z,9.15
2022-10-16T22:16:16.447Z,8.60
2022-10-16T22:21:19.638Z,7.93
2022-10-16T22:26:24.743Z,9.00
2022-10-16T22:31:27.506Z,8.65
2022-10-16T22:36:30.536Z,7.40
2022-10-16T22:41:34.779Z,8.32
2022-10-16T22:46:37.502Z,8.80
2022-10-16T22:51:40.329Z,9.32
2022-10-16T22:56:44.917Z,6.28
2022-10-16T23:01:47.619Z,7.13
2022-10-16T23:06:50.305Z,6.70
2022-10-16T23:11:54.406Z,8.27
2022-10-16T23:16:57.122Z,7.57
2022-10-16T23:21:59.794Z,8.65
2022-10-16T23:27:03.873Z,8.55
2022-10-16T23:32:06.609Z,8.05
2022-10-16T23:37:09.330Z,8.18
2022-10-16T23:42:13.399Z,7.88
2022-10-16T23:47:16.135Z,7.35
2022-10-16T23:52:18.863Z,7.05
2022-10-16T23:57:22.984Z,7.57
